Time;durP1;ratioP1;P1;durP2;ratioP2;P2;SDS_P1;SDS_P2;PMS_P1;PMS_P2;Temp;Humidity;BMP_temperature;BMP_pressure;BME280_temperature;BME280_humidity;BME280_pressure;Samples;Min_cycle;Max_cycle;Signal;HPM_P1;HPM_P2
2022/09/03 00:01:15;;;;;;;2.38;1.73;;;19.80;92.20;;;;;;5097289;28;20560;-74
2022/09/03 00:03:50;;;;;;;2.22;1.95;;;19.80;92.30;;;;;;5102747;28;20023;-74
2022/09/03 00:06:33;;;;;;;3.45;2.08;;;19.70;92.40;;;;;;5099278;28;20020;-74
2022/09/03 00:09:12;;;;;;;2.35;1.67;;;19.70;92.30;;;;;;5099687;28;20052;-74
2022/09/03 00:12:14;;;;;;;2.05;1.88;;;19.70;92.30;;;;;;5102536;28;20020;-74
2022/09/03 00:14:52;;;;;;;2.47;2.10;;;19.70;92.40;;;;;;5104716;28;20027;-74
2022/09/03 00:17:23;;;;;;;2.22;2.00;;;19.70;92.40;;;;;;5099289;28;20077;-74
2022/09/03 00:20:07;;;;;;;8.05;2.10;;;19.70;92.60;;;;;;5100327;28;20106;-74
2022/09/03 00:22:38;;;;;;;2.35;2.10;;;19.70;92.60;;;;;;5111045;28;20043;-74
2022/09/03 00:25:10;;;;;;;3.42;1.90;;;19.60;92.70;;;;;;5107121;28;20015;-74
2022/09/03 00:27:40;;;;;;;2.08;1.77;;;19.60;92.90;;;;;;5099329;28;20616;-74
2022/09/03 00:30:13;;;;;;;2.95;2.13;;;19.50;92.90;;;;;;5109899;28;20046;-74
2022/09/03 00:32:46;;;;;;;1.88;1.70;;;19.50;92.80;;;;;;5097552;28;20022;-74
2022/09/03 00:35:27;;;;;;;4.10;1.98;;;19.50;92.90;;;;;;5107476;28;20106;-74
2022/09/03 00:37:54;;;;;;;3.28;1.92;;;19.50;92.90;;;;;;5082869;28;20608;-74
2022/09/03 00:40:42;;;;;;;2.00;1.80;;;19.50;92.90;;;;;;5109980;28;20031;-73
2022/09/03 00:43:24;;;;;;;1.98;1.83;;;19.50;93.00;;;;;;5101387;28;20372;-74
2022/09/03 00:46:23;;;;;;;6.22;2.30;;;19.50;93.00;;;;;;5103533;28;20487;-73
2022/09/03 00:48:55;;;;;;;3.20;2.05;;;19.40;93.20;;;;;;5091517;28;20544;-73
2022/09/03 00:51:31;;;;;;;2.67;1.80;;;19.40;93.10;;;;;;5104199;28;20119;-73
2022/09/03 00:54:00;;;;;;;4.20;1.85;;;19.40;93.10;;;;;;5104581;28;20020;-73
2022/09/03 00:56:41;;;;;;;2.75;1.80;;;19.40;93.00;;;;;;5093809;28;20109;-73
2022/09/03 00:59:25;;;;;;;2.33;1.80;;;19.40;93.20;;;;;;5103689;28;20020;-73
2022/09/03 01:02:02;;;;;;;3.72;2.05;;;19.40;93.20;;;;;;5099374;28;20106;-74
2022/09/03 01:04:42;;;;;;;2.55;1.90;;;19.30;93.20;;;;;;5101298;28;20012;-73
2022/09/03 01:07:32;;;;;;;4.78;1.75;;;19.30;93.20;;;;;;5106668;28;20031;-73
2022/09/03 01:10:24;;;;;;;2.95;1.98;;;19.30;93.20;;;;;;5095389;28;20035;-73
2022/09/03 01:13:15;;;;;;;2.60;1.95;;;19.30;93.20;;;;;;5082529;28;20027;-74
2022/09/03 01:15:47;;;;;;;2.17;1.98;;;19.20;93.30;;;;;;5106367;28;20028;-74
2022/09/03 01:18:30;;;;;;;2.97;1.73;;;19.20;93.50;;;;;;5098966;28;20024;-74
2022/09/03 01:21:30;;;;;;;3.80;1.88;;;19.20;93.60;;;;;;5103936;28;20039;-74
2022/09/03 01:24:11;;;;;;;5.80;2.08;;;19.10;93.60;;;;;;5060800;28;20099;-73
2022/09/03 01:26:47;;;;;;;2.85;1.90;;;19.10;93.60;;;;;;5104501;28;20054;-74
2022/09/03 01:29:38;;;;;;;4.28;2.10;;;19.20;94.00;;;;;;5103814;28;20038;-74
2022/09/03 01:32:44;;;;;;;4.05;2.22;;;19.20;93.80;;;;;;5100501;28;20028;-74
2022/09/03 01:35:16;;;;;;;4.47;1.92;;;19.10;93.80;;;;;;5088153;28;20115;-73
2022/09/03 01:38:00;;;;;;;5.03;2.30;;;19.20;93.90;;;;;;5109837;28;20012;-73
2022/09/03 01:40:40;;;;;;;2.20;1.85;;;19.20;93.80;;;;;;5099362;28;20278;-73
2022/09/03 01:43:34;;;;;;;4.35;2.22;;;19.20;93.70;;;;;;5108904;28;20027;-74
2022/09/03 01:46:18;;;;;;;4.95;2.00;;;19.30;93.70;;;;;;5101236;27;20469;-73
2022/09/03 01:49:21;;;;;;;5.15;1.95;;;19.30;93.50;;;;;;5103508;28;20469;-73
2022/09/03 01:51:51;;;;;;;;;;;19.30;93.40;;;;;;5099804;28;20036;-73
2022/09/03 01:54:45;;;;;;;2.00;1.80;;;19.30;93.50;;;;;;5101739;28;19911;-73
2022/09/03 01:57:33;;;;;;;1.95;1.70;;;19.30;93.50;;;;;;5097884;28;20030;-75
2022/09/03 02:00:12;;;;;;;2.63;1.75;;;19.30;93.60;;;;;;5098046;28;20024;-73
2022/09/03 02:02:42;;;;;;;2.58;1.90;;;19.30;93.60;;;;;;5109148;28;20016;-74
2022/09/03 02:05:10;;;;;;;2.05;1.77;;;19.30;93.60;;;;;;5105497;28;20128;-75
2022/09/03 02:07:42;;;;;;;2.47;2.08;;;19.30;93.60;;;;;;5094826;28;20019;-75
2022/09/03 02:10:15;;;;;;;2.10;1.88;;;19.20;93.60;;;;;;5098508;28;20134;-74
2022/09/03 02:12:47;;;;;;;2.30;2.10;;;19.20;93.80;;;;;;5108962;28;20108;-75
2022/09/03 02:15:17;;;;;;;1.90;1.60;;;19.20;93.70;;;;;;5094820;28;20024;-74
2022/09/03 02:17:46;;;;;;;2.40;1.85;;;19.20;94.10;;;;;;5095323;28;20027;-75
2022/09/03 02:20:19;;;;;;;5.18;2.30;;;19.20;93.80;;;;;;5097712;27;20624;-74
2022/09/03 02:22:47;;;;;;;4.57;1.80;;;19.20;93.80;;;;;;5082549;28;20015;-74
2022/09/03 02:25:13;;;;;;;2.03;1.83;;;19.10;93.90;;;;;;5097846;28;20031;-74
2022/09/03 02:27:39;;;;;;;4.28;1.83;;;19.10;94.00;;;;;;5108645;28;20016;-74
2022/09/03 02:30:06;;;;;;;2.30;1.85;;;19.10;94.00;;;;;;5103287;28;20405;-74
2022/09/03 02:32:32;;;;;;;3.08;2.00;;;19.10;94.10;;;;;;5096235;28;20012;-74
2022/09/03 02:34:58;;;;;;;3.55;1.95;;;19.10;94.10;;;;;;5103540;28;20022;-74
2022/09/03 02:37:24;;;;;;;2.05;1.85;;;19.10;94.20;;;;;;5096593;28;20035;-74
2022/09/03 02:39:53;;;;;;;3.88;2.10;;;19.10;94.10;;;;;;5098734;28;20149;-74
2022/09/03 02:42:19;;;;;;;2.60;2.10;;;19.10;94.10;;;;;;5107337;28;20019;-74
2022/09/03 02:44:52;;;;;;;3.97;2.30;;;19.00;94.10;;;;;;5101612;28;20031;-75
2022/09/03 02:47:19;;;;;;;4.22;1.90;;;19.00;94.10;;;;;;5095446;28;20027;-73
2022/09/03 02:49:47;;;;;;;2.08;1.75;;;19.00;94.00;;;;;;5095227;28;20020;-74
2022/09/03 02:52:13;;;;;;;2.53;1.77;;;19.00;94.00;;;;;;5101680;28;20069;-74
2022/09/03 02:54:40;;;;;;;1.80;1.70;;;19.00;94.00;;;;;;5101733;28;20031;-75
2022/09/03 02:57:12;;;;;;;3.53;1.65;;;19.00;94.20;;;;;;5096031;28;20020;-74
2022/09/03 02:59:38;;;;;;;3.25;1.83;;;19.00;93.80;;;;;;5098889;28;20024;-73
2022/09/03 03:02:05;;;;;;;2.55;1.80;;;19.00;93.90;;;;;;5105873;28;20028;-74
2022/09/03 03:04:31;;;;;;;2.28;1.88;;;19.00;93.90;;;;;;5100356;28;20032;-73
2022/09/03 03:06:57;;;;;;;4.47;1.98;;;19.00;93.90;;;;;;5098169;28;20032;-74
2022/09/03 03:09:23;;;;;;;5.32;2.10;;;19.00;94.00;;;;;;5102374;28;20024;-74
2022/09/03 03:11:50;;;;;;;2.42;1.92;;;18.90;94.20;;;;;;5104212;28;20382;-74
2022/09/03 03:14:16;;;;;;;1.98;1.60;;;18.90;94.30;;;;;;5100645;28;20023;-73
2022/09/03 03:16:43;;;;;;;3.78;1.90;;;18.90;94.30;;;;;;5098942;28;20136;-74
2022/09/03 03:19:08;;;;;;;2.40;2.00;;;18.90;94.10;;;;;;5096028;28;20107;-73
2022/09/03 03:21:34;;;;;;;2.90;1.92;;;18.90;94.20;;;;;;5099082;28;20162;-73
2022/09/03 03:24:03;;;;;;;3.85;1.70;;;18.80;94.20;;;;;;5102360;28;20065;-73
2022/09/03 03:26:29;;;;;;;2.55;2.05;;;18.80;94.30;;;;;;5100491;28;20020;-74
2022/09/03 03:28:58;;;;;;;7.47;1.92;;;18.80;94.30;;;;;;5096462;28;20494;-75
2022/09/03 03:31:24;;;;;;;2.95;2.00;;;18.80;94.30;;;;;;5100029;28;20034;-74
2022/09/03 03:33:58;;;;;;;3.53;1.80;;;18.70;94.20;;;;;;5096707;28;20051;-73
2022/09/03 03:36:26;;;;;;;3.05;2.08;;;18.70;94.50;;;;;;5110293;28;20138;-73
2022/09/03 03:38:56;;;;;;;2.17;1.80;;;18.70;94.50;;;;;;5107871;28;20020;-73
2022/09/03 03:41:25;;;;;;;2.33;1.90;;;18.60;94.70;;;;;;5106151;28;20086;-74
2022/09/03 03:43:55;;;;;;;1.45;1.35;;;18.60;94.70;;;;;;5105739;28;20016;-74
2022/09/03 03:46:22;;;;;;;2.80;1.80;;;18.50;94.70;;;;;;5105664;28;20080;-73
2022/09/03 03:48:49;;;;;;;3.22;1.90;;;18.50;94.90;;;;;;5101774;28;20020;-73
2022/09/03 03:51:15;;;;;;;2.38;1.77;;;18.40;95.20;;;;;;5114263;28;20027;-73
2022/09/03 03:53:41;;;;;;;2.35;1.80;;;18.40;95.30;;;;;;5106610;28;20081;-73
2022/09/03 03:56:11;;;;;;;2.35;1.77;;;18.40;95.30;;;;;;5107371;28;20482;-73
2022/09/03 03:58:37;;;;;;;3.72;2.03;;;18.30;95.40;;;;;;5102722;28;20104;-73
2022/09/03 04:01:08;;;;;;;2.25;1.80;;;18.30;95.50;;;;;;5103267;27;20533;-73
2022/09/03 04:03:34;;;;;;;4.60;1.80;;;18.20;95.60;;;;;;5105785;28;20493;-73
2022/09/03 04:06:01;;;;;;;2.85;1.98;;;18.20;95.70;;;;;;5107063;28;20521;-73
2022/09/03 04:08:27;;;;;;;2.20;2.00;;;18.20;95.70;;;;;;5101240;28;20023;-74
2022/09/03 04:10:53;;;;;;;3.78;2.08;;;18.20;95.80;;;;;;5104909;28;20039;-74
2022/09/03 04:13:19;;;;;;;2.25;1.88;;;18.20;95.90;;;;;;5100858;28;20020;-74
2022/09/03 04:15:45;;;;;;;1.88;1.77;;;18.10;96.00;;;;;;5101699;28;20024;-75
2022/09/03 04:18:11;;;;;;;2.03;1.83;;;18.10;95.80;;;;;;5108581;28;20020;-75
2022/09/03 04:20:37;;;;;;;2.92;2.10;;;18.20;95.80;;;;;;5108577;28;20031;-73
2022/09/03 04:23:04;;;;;;;2.72;2.10;;;18.20;95.70;;;;;;5108986;28;20078;-74
2022/09/03 04:25:31;;;;;;;2.92;2.20;;;18.20;95.80;;;;;;5101302;28;20028;-75
2022/09/03 04:27:56;;;;;;;3.13;1.75;;;18.20;95.80;;;;;;5109165;28;20016;-74
2022/09/03 04:30:22;;;;;;;3.50;2.00;;;18.20;95.70;;;;;;5109009;28;20065;-74
2022/09/03 04:32:54;;;;;;;2.50;1.77;;;18.20;95.70;;;;;;5097122;28;20470;-73
2022/09/03 04:35:21;;;;;;;5.03;2.13;;;18.20;95.70;;;;;;5108784;28;20393;-73
2022/09/03 04:37:47;;;;;;;2.40;1.70;;;18.20;95.60;;;;;;5096914;28;20526;-73
2022/09/03 04:40:13;;;;;;;2.45;1.90;;;18.20;95.60;;;;;;5100050;28;20028;-75
2022/09/03 04:42:38;;;;;;;3.17;2.03;;;18.20;95.60;;;;;;5109618;28;20038;-74
2022/09/03 04:45:05;;;;;;;2.13;1.90;;;18.20;95.60;;;;;;5107044;28;20030;-74
2022/09/03 04:47:31;;;;;;;2.60;2.10;;;18.20;95.50;;;;;;5096999;28;20069;-74
2022/09/03 04:49:57;;;;;;;2.08;1.85;;;18.20;95.40;;;;;;5106785;28;20562;-74
2022/09/03 04:52:23;;;;;;;2.38;1.63;;;18.20;95.30;;;;;;5098759;28;20031;-74
2022/09/03 04:54:49;;;;;;;3.63;2.20;;;18.20;95.30;;;;;;5105005;28;20015;-74
2022/09/03 04:57:15;;;;;;;2.72;2.13;;;18.20;95.30;;;;;;5099157;28;20028;-74
2022/09/03 04:59:41;;;;;;;3.70;1.92;;;18.30;95.60;;;;;;5103907;28;20020;-74
2022/09/03 05:02:08;;;;;;;5.32;2.30;;;18.40;95.20;;;;;;5099543;28;20457;-74
2022/09/03 05:04:34;;;;;;;2.15;1.90;;;18.40;95.30;;;;;;5099833;28;20031;-74
2022/09/03 05:07:00;;;;;;;2.60;1.90;;;18.40;95.10;;;;;;5107549;28;20012;-75
2022/09/03 05:09:26;;;;;;;4.70;2.10;;;18.40;95.10;;;;;;5102184;28;20462;-74
2022/09/03 05:11:51;;;;;;;2.35;1.80;;;18.50;95.00;;;;;;5106725;28;20101;-74
2022/09/03 05:14:17;;;;;;;3.10;1.85;;;18.50;94.90;;;;;;5101280;28;20020;-74
2022/09/03 05:16:43;;;;;;;3.50;2.03;;;18.60;95.00;;;;;;5102287;28;20078;-74
2022/09/03 05:19:09;;;;;;;2.53;1.92;;;18.60;94.90;;;;;;5103384;28;20019;-75
2022/09/03 05:21:36;;;;;;;2.33;2.00;;;18.60;94.90;;;;;;5102275;28;20542;-75
2022/09/03 05:24:02;;;;;;;3.35;1.83;;;18.70;94.90;;;;;;5104856;28;20028;-75
2022/09/03 05:26:31;;;;;;;3.72;1.80;;;18.70;94.90;;;;;;5102627;28;20370;-75
2022/09/03 05:28:59;;;;;;;6.03;1.63;;;18.80;94.90;;;;;;5099739;28;20382;-76
2022/09/03 05:31:26;;;;;;;2.33;1.83;;;18.80;94.90;;;;;;5103843;28;20051;-74
2022/09/03 05:33:58;;;;;;;4.90;1.60;;;18.80;95.00;;;;;;5103919;28;20016;-75
2022/09/03 05:36:26;;;;;;;6.00;2.20;;;18.80;94.90;;;;;;5097146;28;20559;-74
2022/09/03 05:38:55;;;;;;;6.65;2.20;;;18.90;95.00;;;;;;5099817;28;20027;-74
2022/09/03 05:41:22;;;;;;;2.25;1.77;;;18.90;94.90;;;;;;5102437;28;20027;-74
2022/09/03 05:43:54;;;;;;;3.00;1.70;;;18.90;94.90;;;;;;5103651;28;20027;-75
2022/09/03 05:46:26;;;;;;;1.80;1.70;;;19.00;95.00;;;;;;5103378;27;20118;-74
2022/09/03 05:48:52;;;;;;;3.70;2.00;;;19.00;94.80;;;;;;5098008;28;20043;-74
2022/09/03 05:51:18;;;;;;;2.28;2.08;;;19.00;94.80;;;;;;5102469;28;20509;-74
2022/09/03 05:53:46;;;;;;;1.65;1.55;;;19.00;94.60;;;;;;5102991;27;20027;-74
2022/09/03 05:56:17;;;;;;;2.08;1.83;;;19.10;94.80;;;;;;5104523;28;20133;-75
2022/09/03 05:58:46;;;;;;;3.13;1.50;;;19.10;94.60;;;;;;5098588;28;20050;-75
2022/09/03 06:01:20;;;;;;;2.10;1.90;;;19.20;94.60;;;;;;5100402;28;20035;-75
2022/09/03 06:04:01;;;;;;;2.90;1.60;;;19.30;94.60;;;;;;5097891;28;20024;-74
2022/09/03 06:06:29;;;;;;;5.90;1.88;;;19.30;94.50;;;;;;5103282;28;20011;-74
2022/09/03 06:09:03;;;;;;;4.25;2.00;;;19.30;94.50;;;;;;5102819;28;20024;-75
2022/09/03 06:11:30;;;;;;;6.82;1.90;;;19.40;94.40;;;;;;5103234;28;20095;-79
2022/09/03 06:14:00;;;;;;;2.65;1.67;;;19.40;94.40;;;;;;5103692;28;20539;-73
2022/09/03 06:16:27;;;;;;;2.97;1.73;;;19.60;94.40;;;;;;5094278;28;20028;-74
2022/09/03 06:18:53;;;;;;;2.97;2.00;;;19.70;94.20;;;;;;5098857;28;20020;-75
2022/09/03 06:21:19;;;;;;;2.60;1.88;;;19.70;94.20;;;;;;5102799;28;20024;-76
2022/09/03 06:23:56;;;;;;;2.63;1.90;;;19.80;94.30;;;;;;5096731;28;20018;-75
2022/09/03 06:26:23;;;;;;;2.17;1.85;;;19.80;94.20;;;;;;5102996;28;20028;-79
2022/09/03 06:28:49;;;;;;;2.85;1.58;;;19.90;94.30;;;;;;5098676;28;20046;-74
2022/09/03 06:31:16;;;;;;;3.40;1.80;;;20.00;94.10;;;;;;5111284;28;20036;-77
2022/09/03 06:33:43;;;;;;;3.75;1.83;;;20.00;94.00;;;;;;5102790;28;20531;-77
2022/09/03 06:36:14;;;;;;;2.55;1.63;;;20.10;94.00;;;;;;5095712;28;20047;-77
2022/09/03 06:38:41;;;;;;;1.70;1.60;;;20.20;93.80;;;;;;5103749;28;20521;-73
2022/09/03 06:41:10;;;;;;;1.73;1.63;;;20.20;93.70;;;;;;5100607;28;20024;-73
2022/09/03 06:43:38;;;;;;;2.08;1.75;;;20.40;93.70;;;;;;5102506;28;20020;-76
2022/09/03 06:46:12;;;;;;;5.30;1.95;;;20.50;93.50;;;;;;5103874;28;20020;-77
2022/09/03 06:48:42;;;;;;;3.25;1.55;;;20.60;93.50;;;;;;5095900;28;20020;-75
2022/09/03 06:51:13;;;;;;;2.72;1.77;;;20.60;93.10;;;;;;5099922;28;20055;-73
2022/09/03 06:53:44;;;;;;;5.53;1.55;;;20.70;93.00;;;;;;5102907;28;20084;-75
2022/09/03 06:56:15;;;;;;;2.83;1.58;;;20.80;92.80;;;;;;5097435;28;20641;-76
2022/09/03 06:58:44;;;;;;;2.05;1.85;;;20.90;92.90;;;;;;5104260;28;20035;-75
2022/09/03 07:01:22;;;;;;;1.50;1.40;;;21.00;92.50;;;;;;5095825;28;20493;-75
2022/09/03 07:03:55;;;;;;;1.52;1.40;;;21.00;92.60;;;;;;5102279;28;20548;-75
2022/09/03 07:06:22;;;;;;;1.58;1.48;;;21.10;92.40;;;;;;5101840;28;20439;-74
2022/09/03 07:08:48;;;;;;;2.55;1.70;;;21.20;92.40;;;;;;5095059;28;20058;-75
2022/09/03 07:11:18;;;;;;;2.10;1.77;;;21.20;92.40;;;;;;5099628;28;20062;-75
2022/09/03 07:13:46;;;;;;;3.03;1.50;;;21.30;92.30;;;;;;5103890;28;20027;-75
2022/09/03 07:16:21;;;;;;;2.22;1.70;;;21.40;92.10;;;;;;5102957;28;20024;-75
2022/09/03 07:18:48;;;;;;;5.18;1.30;;;21.50;92.20;;;;;;5096853;28;20071;-75
2022/09/03 07:21:15;;;;;;;1.58;1.48;;;21.60;91.70;;;;;;5102861;28;20378;-75
2022/09/03 07:23:42;;;;;;;4.55;1.70;;;21.70;91.90;;;;;;5101104;28;20019;-75
2022/09/03 07:26:14;;;;;;;2.25;1.33;;;21.70;91.90;;;;;;5099567;28;20016;-74
2022/09/03 07:28:40;;;;;;;;;;;21.80;91.70;;;;;;5098282;28;20489;-76
2022/09/03 07:31:10;;;;;;;1.50;1.40;;;21.90;91.80;;;;;;5101846;28;19912;-75
2022/09/03 07:33:39;;;;;;;2.40;1.40;;;22.00;91.40;;;;;;5097898;28;20016;-77
2022/09/03 07:36:08;;;;;;;1.58;1.45;;;22.00;91.20;;;;;;5098018;28;20077;-75
2022/09/03 07:38:35;;;;;;;4.35;1.98;;;22.10;91.00;;;;;;5099876;28;20041;-75
2022/09/03 07:41:04;;;;;;;2.55;1.50;;;22.20;90.90;;;;;;5096534;28;20587;-75
2022/09/03 07:43:45;;;;;;;2.72;1.55;;;22.20;90.60;;;;;;5101248;28;20016;-76
2022/09/03 07:46:12;;;;;;;4.75;1.63;;;22.30;90.60;;;;;;5094598;28;20598;-75
2022/09/03 07:48:39;;;;;;;5.13;1.65;;;22.40;90.80;;;;;;5096828;28;20080;-75
2022/09/03 07:51:06;;;;;;;2.00;1.50;;;22.40;90.80;;;;;;5098483;28;20036;-75
2022/09/03 07:53:32;;;;;;;2.65;1.70;;;22.40;90.70;;;;;;5096752;28;20028;-75
2022/09/03 07:56:09;;;;;;;4.88;1.90;;;22.50;90.90;;;;;;5100209;28;20078;-75
2022/09/03 07:58:36;;;;;;;2.00;1.77;;;22.60;90.70;;;;;;5092968;28;20105;-75
2022/09/03 08:01:12;;;;;;;2.80;1.55;;;22.60;90.40;;;;;;5099117;28;20505;-75
2022/09/03 08:03:42;;;;;;;5.35;1.70;;;22.60;90.60;;;;;;5097388;28;20020;-76
2022/09/03 08:06:09;;;;;;;2.70;1.33;;;22.70;90.40;;;;;;5096129;28;20023;-76
2022/09/03 08:08:36;;;;;;;1.45;1.35;;;22.80;90.10;;;;;;5102398;28;20045;-75
2022/09/03 08:11:10;;;;;;;2.20;1.58;;;22.90;89.40;;;;;;5100497;28;20702;-75
2022/09/03 08:13:41;;;;;;;1.48;1.38;;;22.90;90.20;;;;;;5104386;28;20270;-76
2022/09/03 08:16:08;;;;;;;2.53;1.40;;;23.00;89.90;;;;;;5101504;28;20107;-75
2022/09/03 08:18:37;;;;;;;1.77;1.42;;;23.10;89.50;;;;;;5098892;28;20024;-75
2022/09/03 08:21:14;;;;;;;2.97;1.23;;;23.10;90.00;;;;;;5102233;28;20028;-76
2022/09/03 08:23:51;;;;;;;9.15;1.52;;;23.10;89.90;;;;;;5099875;28;20020;-73
2022/09/03 08:26:18;;;;;;;3.28;1.17;;;23.20;90.00;;;;;;5100649;28;20454;-76
2022/09/03 08:28:44;;;;;;;3.00;1.27;;;23.30;89.30;;;;;;5105064;28;20016;-76
2022/09/03 08:31:14;;;;;;;2.20;1.60;;;23.30;89.20;;;;;;5105122;28;20104;-76
2022/09/03 08:33:45;;;;;;;2.15;1.60;;;23.40;89.70;;;;;;5097641;28;20110;-75
2022/09/03 08:36:22;;;;;;;1.50;1.40;;;23.50;90.10;;;;;;5099714;28;20206;-76
2022/09/03 08:38:53;;;;;;;3.33;1.38;;;23.60;89.30;;;;;;5105075;28;20042;-76
2022/09/03 08:41:22;;;;;;;2.45;1.55;;;23.70;88.10;;;;;;5104709;28;20027;-76
2022/09/03 08:44:00;;;;;;;2.25;1.40;;;23.80;89.00;;;;;;5105589;27;20053;-76
2022/09/03 08:46:56;;;;;;;4.47;1.77;;;23.80;88.60;;;;;;5103402;28;20027;-76
2022/09/03 08:49:34;;;;;;;2.42;1.58;;;23.90;87.40;;;;;;5102875;28;20031;-76
2022/09/03 08:52:04;;;;;;;2.28;1.60;;;24.10;88.10;;;;;;5098825;28;20032;-75
2022/09/03 08:54:31;;;;;;;1.50;1.30;;;24.30;87.40;;;;;;5104579;28;20417;-74
2022/09/03 08:57:01;;;;;;;7.28;1.30;;;24.50;85.80;;;;;;5100748;28;20394;-74
2022/09/03 08:59:28;;;;;;;1.45;1.35;;;24.60;84.70;;;;;;5103262;28;20058;-74
2022/09/03 09:01:57;;;;;;;1.27;1.00;;;24.60;83.90;;;;;;5114256;28;20023;-73
2022/09/03 09:05:00;;;;;;;2.42;1.50;;;24.70;85.00;;;;;;5101548;28;20028;-74
2022/09/03 09:07:50;;;;;;;1.40;1.30;;;24.80;85.50;;;;;;5098015;28;20027;-74
2022/09/03 09:10:43;;;;;;;1.38;1.27;;;24.90;84.30;;;;;;5098159;28;20058;-76
2022/09/03 09:13:33;;;;;;;;;;;25.00;84.70;;;;;;5100450;27;20031;-77
2022/09/03 09:16:06;;;;;;;4.00;1.67;;;25.10;85.70;;;;;;5097689;28;19934;-78
2022/09/03 09:18:35;;;;;;;3.35;1.52;;;25.00;85.10;;;;;;5098326;28;20035;-75
2022/09/03 09:21:12;;;;;;;2.72;1.50;;;25.00;85.90;;;;;;5104109;28;20116;-76
2022/09/03 09:23:44;;;;;;;5.10;1.40;;;25.00;84.30;;;;;;5097368;28;20016;-77
2022/09/03 09:26:15;;;;;;;2.53;1.55;;;24.90;84.40;;;;;;5099857;28;20027;-77
2022/09/03 09:28:42;;;;;;;3.00;1.35;;;24.70;86.70;;;;;;5100600;28;20052;-76
2022/09/03 09:31:14;;;;;;;8.23;1.80;;;24.70;84.70;;;;;;5104203;28;20043;-76
2022/09/03 09:33:40;;;;;;;2.70;1.20;;;24.60;87.00;;;;;;5095268;28;20490;-77
2022/09/03 09:36:10;;;;;;;3.13;1.60;;;24.60;86.00;;;;;;5105103;28;20379;-76
2022/09/03 09:38:37;;;;;;;2.55;1.42;;;24.60;86.10;;;;;;5098047;28;20024;-76
2022/09/03 09:41:15;;;;;;;5.93;1.48;;;24.60;86.00;;;;;;5103164;28;20393;-76
2022/09/03 09:43:41;;;;;;;8.98;1.40;;;24.60;85.50;;;;;;5097691;28;20067;-77
2022/09/03 09:46:32;;;;;;;5.32;1.27;;;24.60;87.30;;;;;;5104992;28;20085;-76
2022/09/03 09:48:58;;;;;;;4.50;1.42;;;24.60;87.50;;;;;;5099691;28;20140;-76
2022/09/03 09:51:23;;;;;;;1.80;1.23;;;24.60;88.80;;;;;;5101471;28;20119;-76
2022/09/03 09:54:11;;;;;;;1.88;1.10;;;24.80;87.40;;;;;;5100233;28;20023;-77
2022/09/03 09:56:36;;;;;;;2.85;1.23;;;24.90;85.80;;;;;;5112179;28;20591;-76
2022/09/03 09:59:07;;;;;;;3.33;1.40;;;24.90;85.30;;;;;;5105234;28;20111;-76
2022/09/03 10:01:37;;;;;;;2.50;1.10;;;24.80;83.70;;;;;;5100630;28;20069;-77
2022/09/03 10:04:12;;;;;;;3.88;1.50;;;24.70;83.00;;;;;;5098578;28;20482;-73
2022/09/03 10:06:54;;;;;;;2.60;1.33;;;24.60;85.30;;;;;;5098023;28;20107;-74
2022/09/03 10:09:22;;;;;;;3.80;1.38;;;24.40;86.40;;;;;;5095262;28;20047;-73
2022/09/03 10:12:30;;;;;;;1.83;1.15;;;24.30;85.00;;;;;;5100363;28;20679;-74
2022/09/03 10:15:23;;;;;;;4.60;1.15;;;24.40;83.60;;;;;;5103447;28;20024;-74
2022/09/03 10:18:01;;;;;;;3.22;1.50;;;24.50;85.20;;;;;;5104902;28;20026;-75
2022/09/03 10:20:50;;;;;;;2.35;1.40;;;24.60;87.90;;;;;;5103598;28;20028;-73
2022/09/03 10:23:26;;;;;;;3.90;1.48;;;24.70;86.40;;;;;;5092317;28;20039;-74
2022/09/03 10:26:13;;;;;;;3.50;1.38;;;24.70;87.90;;;;;;5099029;28;20028;-74
2022/09/03 10:28:41;;;;;;;2.38;1.60;;;24.70;89.90;;;;;;5095806;28;20106;-73
2022/09/03 10:31:30;;;;;;;3.28;1.42;;;24.70;90.10;;;;;;5095122;28;20496;-73
2022/09/03 10:34:23;;;;;;;1.25;1.17;;;24.70;90.30;;;;;;5100804;28;20099;-73
2022/09/03 10:36:51;;;;;;;;;;;24.80;90.60;;;;;;5080546;28;20101;-74
2022/09/03 10:39:24;;;;;;;1.73;1.42;;;25.00;90.60;;;;;;5098185;28;19907;-74
2022/09/03 10:42:20;;;;;;;1.30;1.20;;;24.80;90.00;;;;;;5101565;28;20041;-74
2022/09/03 10:44:49;;;;;;;1.60;1.50;;;24.90;90.60;;;;;;5099282;28;20046;-77
2022/09/03 10:47:28;;;;;;;3.17;1.40;;;24.80;90.60;;;;;;5093088;28;20042;-74
2022/09/03 10:50:05;;;;;;;3.95;1.35;;;24.70;91.20;;;;;;5095829;27;20510;-74
2022/09/03 10:53:21;;;;;;;1.40;1.30;;;24.60;91.30;;;;;;5091652;28;20107;-74
2022/09/03 10:56:11;;;;;;;2.85;1.40;;;24.60;91.70;;;;;;5062715;28;20047;-74
2022/09/03 10:58:42;;;;;;;2.80;1.70;;;24.70;91.80;;;;;;5093576;28;20027;-74
2022/09/03 11:01:43;;;;;;;4.78;1.58;;;24.70;92.10;;;;;;5095063;28;20102;-74
2022/09/03 11:04:18;;;;;;;2.72;1.65;;;24.60;92.50;;;;;;5096987;28;20059;-75
2022/09/03 11:06:54;;;;;;;1.70;1.52;;;24.60;92.50;;;;;;5071444;28;20042;-76
2022/09/03 11:09:25;;;;;;;4.28;1.48;;;24.70;92.90;;;;;;5098696;28;20020;-74
2022/09/03 11:11:59;;;;;;;3.65;1.58;;;24.80;92.90;;;;;;5104490;28;20028;-74
2022/09/03 11:14:39;;;;;;;1.48;1.30;;;24.90;92.40;;;;;;5102049;28;20068;-75
2022/09/03 11:17:28;;;;;;;3.08;1.55;;;24.90;92.20;;;;;;5097272;28;20405;-74
2022/09/03 11:20:21;;;;;;;2.00;1.63;;;24.90;92.50;;;;;;5096484;28;20073;-75
2022/09/03 11:22:53;;;;;;;7.72;1.77;;;24.90;92.60;;;;;;5083412;28;20533;-76
2022/09/03 11:25:30;;;;;;;4.85;1.60;;;25.00;92.10;;;;;;5097974;28;20016;-76
2022/09/03 11:28:18;;;;;;;3.55;1.80;;;25.00;92.10;;;;;;5092742;28;20478;-76
2022/09/03 11:31:22;;;;;;;3.88;1.58;;;25.20;91.80;;;;;;5099632;28;20115;-76
2022/09/03 11:34:00;;;;;;;2.45;1.50;;;25.60;91.50;;;;;;5090048;28;20482;-76
2022/09/03 11:36:32;;;;;;;3.75;1.25;;;25.60;91.10;;;;;;5100758;28;20548;-76
2022/09/03 11:38:59;;;;;;;2.55;1.35;;;25.70;91.20;;;;;;5098164;28;20035;-76
2022/09/03 11:41:37;;;;;;;5.28;1.60;;;25.70;91.50;;;;;;5100782;28;20040;-75
2022/09/03 11:44:18;;;;;;;1.58;1.48;;;25.80;91.80;;;;;;5099310;28;20486;-76
2022/09/03 11:46:58;;;;;;;2.67;1.60;;;26.00;90.70;;;;;;5098201;28;20034;-75
2022/09/03 11:49:29;;;;;;;1.88;1.55;;;26.10;90.40;;;;;;5097263;28;20136;-75
2022/09/03 11:52:00;;;;;;;2.07;1.83;;;26.30;90.00;;;;;;5103403;28;20030;-75
2022/09/03 11:54:30;;;;;;;2.13;1.90;;;26.40;90.10;;;;;;5100872;28;20305;-75
2022/09/03 11:57:11;;;;;;;3.38;1.92;;;26.30;90.00;;;;;;5099933;28;20470;-76
2022/09/03 11:59:38;;;;;;;5.55;1.75;;;26.40;90.40;;;;;;5105152;28;20031;-76
2022/09/03 12:02:29;;;;;;;5.47;1.60;;;26.60;89.50;;;;;;5100771;28;20110;-73
2022/09/03 12:05:11;;;;;;;1.85;1.70;;;26.80;89.40;;;;;;5108976;28;20494;-76
2022/09/03 12:07:42;;;;;;;3.88;1.90;;;26.90;89.20;;;;;;5097977;28;20474;-75
2022/09/03 12:10:14;;;;;;;3.17;1.77;;;27.00;89.80;;;;;;5101020;28;20040;-75
2022/09/03 12:12:53;;;;;;;3.78;1.85;;;27.40;88.20;;;;;;5110046;28;20494;-75
2022/09/03 12:15:46;;;;;;;3.08;1.90;;;27.80;87.90;;;;;;5107647;28;20250;-76
2022/09/03 12:18:34;;;;;;;2.10;1.40;;;28.40;86.30;;;;;;5091636;28;20016;-76
2022/09/03 12:21:03;;;;;;;3.53;1.40;;;29.20;84.40;;;;;;5105632;28;20063;-76
2022/09/03 12:23:46;;;;;;;7.13;1.60;;;29.40;84.40;;;;;;5098799;28;20102;-78
2022/09/03 12:26:26;;;;;;;6.88;1.77;;;29.30;82.80;;;;;;5099328;28;20126;-76
2022/09/03 12:29:01;;;;;;;15.70;1.98;;;29.10;84.20;;;;;;5103535;28;20023;-76
2022/09/03 12:31:29;;;;;;;3.50;1.48;;;29.20;83.30;;;;;;5102415;28;20089;-76
2022/09/03 12:34:13;;;;;;;1.73;1.55;;;29.10;84.30;;;;;;5100899;28;20479;-77
2022/09/03 12:36:45;;;;;;;4.47;1.80;;;29.30;84.90;;;;;;5105404;28;20086;-75
2022/09/03 12:39:28;;;;;;;8.50;1.83;;;29.80;84.10;;;;;;5103837;28;20130;-75
2022/09/03 12:42:04;;;;;;;3.30;1.92;;;30.30;83.00;;;;;;5099014;28;20031;-79
2022/09/03 12:44:34;;;;;;;4.50;1.50;;;30.80;79.70;;;;;;5105430;28;20020;-78
2022/09/03 12:47:10;;;;;;;2.53;1.63;;;30.70;77.90;;;;;;5100302;28;20027;-77
2022/09/03 12:49:41;;;;;;;5.28;1.70;;;30.70;78.50;;;;;;5101647;28;20028;-76
2022/09/03 12:52:14;;;;;;;2.67;1.63;;;31.00;78.50;;;;;;5108059;28;20023;-76
2022/09/03 12:55:15;;;;;;;3.22;1.60;;;31.30;78.20;;;;;;5104109;28;20020;-76
2022/09/03 12:57:52;;;;;;;3.40;1.70;;;31.70;76.80;;;;;;5072656;28;20032;-76
2022/09/03 13:00:18;;;;;;;2.63;1.48;;;32.30;75.10;;;;;;5107881;28;20019;-76
2022/09/03 13:02:52;;;;;;;3.80;1.80;;;32.30;74.90;;;;;;5082680;28;20024;-77
2022/09/03 13:05:24;;;;;;;5.43;1.80;;;32.80;74.20;;;;;;5104662;28;20030;-76
2022/09/03 13:07:57;;;;;;;3.63;1.40;;;33.10;72.20;;;;;;5081685;28;20020;-76
2022/09/03 13:10:27;;;;;;;3.42;1.67;;;32.90;72.20;;;;;;5098493;28;20032;-78
2022/09/03 13:13:01;;;;;;;2.00;1.80;;;33.00;72.50;;;;;;5108976;27;20382;-77
2022/09/03 13:15:28;;;;;;;6.72;1.70;;;32.70;72.90;;;;;;5097906;28;20028;-77
2022/09/03 13:18:27;;;;;;;2.00;1.35;;;33.10;73.00;;;;;;5107435;28;20024;-76
2022/09/03 13:21:11;;;;;;;1.90;1.60;;;33.50;72.30;;;;;;5103302;28;20020;-77